sensor_id;sensor_type;location;lat;lon;timestamp;P1;durP1;ratioP1;P2;durP2;ratioP2
42600;SDS011;28229;48.856;9.088;2022-10-28T00:01:05;6.63;;;3.93;;
42600;SDS011;28229;48.856;9.088;2022-10-28T00:03:38;5.17;;;3.70;;
42600;SDS011;28229;48.856;9.088;2022-10-28T00:06:07;5.83;;;4.03;;
42600;SDS011;28229;48.856;9.088;2022-10-28T00:08:36;9.07;;;3.93;;
42600;SDS011;28229;48.856;9.088;2022-10-28T00:11:06;8.67;;;3.90;;
42600;SDS011;28229;48.856;9.088;2022-10-28T00:13:37;8.67;;;4.13;;
42600;SDS011;28229;48.856;9.088;2022-10-28T00:16:08;7.17;;;3.80;;
42600;SDS011;28229;48.856;9.088;2022-10-28T00:18:36;8.07;;;3.77;;
42600;SDS011;28229;48.856;9.088;2022-10-28T00:21:03;8.70;;;4.07;;
42600;SDS011;28229;48.856;9.088;2022-10-28T00:23:31;6.67;;;3.97;;
42600;SDS011;28229;48.856;9.088;2022-10-28T00:26:10;10.23;;;3.90;;
42600;SDS011;28229;48.856;9.088;2022-10-28T00:28:50;6.40;;;3.90;;
42600;SDS011;28229;48.856;9.088;2022-10-28T00:31:19;9.27;;;4.20;;
42600;SDS011;28229;48.856;9.088;2022-10-28T00:33:47;6.97;;;4.20;;
42600;SDS011;28229;48.856;9.088;2022-10-28T00:38:44;4.10;;;3.53;;
42600;SDS011;28229;48.856;9.088;2022-10-28T00:41:12;7.67;;;3.57;;
42600;SDS011;28229;48.856;9.088;2022-10-28T00:43:41;7.17;;;3.90;;
42600;SDS011;28229;48.856;9.088;2022-10-28T00:46:15;5.93;;;3.83;;
42600;SDS011;28229;48.856;9.088;2022-10-28T00:48:57;7.03;;;3.73;;
42600;SDS011;28229;48.856;9.088;2022-10-28T00:51:30;8.73;;;4.23;;
42600;SDS011;28229;48.856;9.088;2022-10-28T00:53:59;7.17;;;4.03;;
42600;SDS011;28229;48.856;9.088;2022-10-28T00:56:27;7.13;;;3.43;;
42600;SDS011;28229;48.856;9.088;2022-10-28T00:58:56;8.33;;;4.00;;
42600;SDS011;28229;48.856;9.088;2022-10-28T01:01:25;7.23;;;4.07;;
42600;SDS011;28229;48.856;9.088;2022-10-28T01:03:51;8.47;;;3.80;;
42600;SDS011;28229;48.856;9.088;2022-10-28T01:06:18;9.47;;;3.97;;
42600;SDS011;28229;48.856;9.088;2022-10-28T01:08:44;6.93;;;4.13;;
42600;SDS011;28229;48.856;9.088;2022-10-28T01:22:39;7.17;;;4.63;;
42600;SDS011;28229;48.856;9.088;2022-10-28T01:25:29;8.57;;;4.10;;
42600;SDS011;28229;48.856;9.088;2022-10-28T01:28:06;8.73;;;4.47;;
42600;SDS011;28229;48.856;9.088;2022-10-28T01:36:26;8.03;;;4.73;;
42600;SDS011;28229;48.856;9.088;2022-10-28T01:41:47;9.07;;;4.60;;
42600;SDS011;28229;48.856;9.088;2022-10-28T01:44:36;7.87;;;4.20;;
42600;SDS011;28229;48.856;9.088;2022-10-28T01:47:15;8.17;;;4.53;;
42600;SDS011;28229;48.856;9.088;2022-10-28T01:52:28;6.27;;;5.23;;
42600;SDS011;28229;48.856;9.088;2022-10-28T01:54:58;10.30;;;5.27;;
42600;SDS011;28229;48.856;9.088;2022-10-28T01:57:29;12.00;;;4.90;;
42600;SDS011;28229;48.856;9.088;2022-10-28T01:59:57;9.10;;;5.20;;
42600;SDS011;28229;48.856;9.088;2022-10-28T02:02:26;8.83;;;5.40;;
42600;SDS011;28229;48.856;9.088;2022-10-28T02:05:04;7.17;;;4.30;;
42600;SDS011;28229;48.856;9.088;2022-10-28T02:07:30;7.37;;;4.37;;
42600;SDS011;28229;48.856;9.088;2022-10-28T02:10:06;6.50;;;4.20;;
42600;SDS011;28229;48.856;9.088;2022-10-28T02:12:41;8.00;;;4.33;;
42600;SDS011;28229;48.856;9.088;2022-10-28T02:15:28;8.37;;;4.50;;
42600;SDS011;28229;48.856;9.088;2022-10-28T02:21:18;8.73;;;4.50;;
42600;SDS011;28229;48.856;9.088;2022-10-28T02:26:23;7.33;;;4.10;;
42600;SDS011;28229;48.856;9.088;2022-10-28T02:31:32;8.83;;;3.97;;
42600;SDS011;28229;48.856;9.088;2022-10-28T02:34:08;7.50;;;4.43;;
42600;SDS011;28229;48.856;9.088;2022-10-28T02:36:41;10.90;;;3.87;;
42600;SDS011;28229;48.856;9.088;2022-10-28T02:39:10;7.33;;;4.30;;
42600;SDS011;28229;48.856;9.088;2022-10-28T02:44:16;8.30;;;4.50;;
42600;SDS011;28229;48.856;9.088;2022-10-28T02:46:48;8.23;;;4.10;;
42600;SDS011;28229;48.856;9.088;2022-10-28T02:49:15;6.47;;;4.40;;
42600;SDS011;28229;48.856;9.088;2022-10-28T02:51:43;9.13;;;4.27;;
42600;SDS011;28229;48.856;9.088;2022-10-28T02:54:20;7.80;;;4.20;;
42600;SDS011;28229;48.856;9.088;2022-10-28T02:56:56;8.00;;;4.03;;
42600;SDS011;28229;48.856;9.088;2022-10-28T02:59:27;8.20;;;4.60;;
42600;SDS011;28229;48.856;9.088;2022-10-28T03:01:53;7.37;;;4.23;;
42600;SDS011;28229;48.856;9.088;2022-10-28T03:04:19;7.07;;;4.40;;
42600;SDS011;28229;48.856;9.088;2022-10-28T03:06:45;6.67;;;4.10;;
42600;SDS011;28229;48.856;9.088;2022-10-28T03:09:11;9.50;;;4.40;;
42600;SDS011;28229;48.856;9.088;2022-10-28T03:11:37;8.40;;;4.10;;
42600;SDS011;28229;48.856;9.088;2022-10-28T03:14:02;8.83;;;3.93;;
42600;SDS011;28229;48.856;9.088;2022-10-28T03:16:28;7.50;;;4.07;;
42600;SDS011;28229;48.856;9.088;2022-10-28T03:18:54;7.60;;;4.10;;
42600;SDS011;28229;48.856;9.088;2022-10-28T03:21:20;8.67;;;4.00;;
42600;SDS011;28229;48.856;9.088;2022-10-28T03:23:46;7.37;;;4.03;;
42600;SDS011;28229;48.856;9.088;2022-10-28T03:26:12;8.13;;;4.17;;
42600;SDS011;28229;48.856;9.088;2022-10-28T03:28:37;5.37;;;3.80;;
42600;SDS011;28229;48.856;9.088;2022-10-28T03:31:03;6.43;;;4.37;;
42600;SDS011;28229;48.856;9.088;2022-10-28T03:33:31;8.03;;;4.23;;
42600;SDS011;28229;48.856;9.088;2022-10-28T03:36:12;5.40;;;3.70;;
42600;SDS011;28229;48.856;9.088;2022-10-28T03:38:38;8.40;;;4.30;;
42600;SDS011;28229;48.856;9.088;2022-10-28T03:41:04;7.77;;;4.30;;
42600;SDS011;28229;48.856;9.088;2022-10-28T03:43:29;9.67;;;4.57;;
42600;SDS011;28229;48.856;9.088;2022-10-28T03:45:55;9.90;;;3.93;;
42600;SDS011;28229;48.856;9.088;2022-10-28T03:48:21;6.03;;;3.90;;
42600;SDS011;28229;48.856;9.088;2022-10-28T03:50:50;7.00;;;4.17;;
42600;SDS011;28229;48.856;9.088;2022-10-28T03:53:17;7.60;;;4.23;;
42600;SDS011;28229;48.856;9.088;2022-10-28T03:55:42;9.80;;;4.50;;
42600;SDS011;28229;48.856;9.088;2022-10-28T03:58:08;6.17;;;4.67;;
42600;SDS011;28229;48.856;9.088;2022-10-28T04:00:34;11.40;;;4.30;;
42600;SDS011;28229;48.856;9.088;2022-10-28T04:03:00;8.07;;;4.07;;
42600;SDS011;28229;48.856;9.088;2022-10-28T04:05:25;7.07;;;4.10;;
42600;SDS011;28229;48.856;9.088;2022-10-28T04:07:51;7.73;;;3.90;;
42600;SDS011;28229;48.856;9.088;2022-10-28T04:10:18;5.53;;;3.67;;
42600;SDS011;28229;48.856;9.088;2022-10-28T04:12:44;7.23;;;4.30;;
42600;SDS011;28229;48.856;9.088;2022-10-28T04:15:10;9.03;;;3.80;;
42600;SDS011;28229;48.856;9.088;2022-10-28T04:17:36;6.10;;;3.90;;
42600;SDS011;28229;48.856;9.088;2022-10-28T04:20:02;5.50;;;3.60;;
42600;SDS011;28229;48.856;9.088;2022-10-28T04:22:28;8.53;;;4.40;;
42600;SDS011;28229;48.856;9.088;2022-10-28T04:24:53;7.57;;;4.57;;
42600;SDS011;28229;48.856;9.088;2022-10-28T04:27:20;9.07;;;4.63;;
42600;SDS011;28229;48.856;9.088;2022-10-28T04:29:46;8.10;;;4.13;;
42600;SDS011;28229;48.856;9.088;2022-10-28T04:32:11;11.57;;;4.43;;
42600;SDS011;28229;48.856;9.088;2022-10-28T04:34:37;9.87;;;4.43;;
42600;SDS011;28229;48.856;9.088;2022-10-28T04:37:03;7.03;;;4.30;;
42600;SDS011;28229;48.856;9.088;2022-10-28T04:39:29;10.67;;;4.10;;
42600;SDS011;28229;48.856;9.088;2022-10-28T04:41:55;7.83;;;4.30;;
42600;SDS011;28229;48.856;9.088;2022-10-28T04:44:20;6.90;;;4.20;;
42600;SDS011;28229;48.856;9.088;2022-10-28T04:46:46;8.63;;;4.60;;
42600;SDS011;28229;48.856;9.088;2022-10-28T04:49:12;9.20;;;4.60;;
42600;SDS011;28229;48.856;9.088;2022-10-28T04:51:38;6.97;;;4.63;;
42600;SDS011;28229;48.856;9.088;2022-10-28T04:54:03;6.87;;;4.50;;
42600;SDS011;28229;48.856;9.088;2022-10-28T04:56:29;6.37;;;4.43;;
42600;SDS011;28229;48.856;9.088;2022-10-28T04:58:57;8.93;;;4.50;;
42600;SDS011;28229;48.856;9.088;2022-10-28T05:01:23;9.03;;;4.57;;
42600;SDS011;28229;48.856;9.088;2022-10-28T05:03:49;5.90;;;4.10;;
42600;SDS011;28229;48.856;9.088;2022-10-28T05:06:15;7.63;;;4.47;;
42600;SDS011;28229;48.856;9.088;2022-10-28T05:08:43;7.20;;;4.20;;
42600;SDS011;28229;48.856;9.088;2022-10-28T05:11:09;9.03;;;4.33;;
42600;SDS011;28229;48.856;9.088;2022-10-28T05:13:35;8.33;;;4.30;;
42600;SDS011;28229;48.856;9.088;2022-10-28T05:16:01;7.13;;;4.30;;
42600;SDS011;28229;48.856;9.088;2022-10-28T05:18:26;5.53;;;3.90;;
42600;SDS011;28229;48.856;9.088;2022-10-28T05:20:52;6.23;;;4.43;;
42600;SDS011;28229;48.856;9.088;2022-10-28T05:23:20;9.07;;;4.00;;
42600;SDS011;28229;48.856;9.088;2022-10-28T05:25:47;8.53;;;4.17;;
42600;SDS011;28229;48.856;9.088;2022-10-28T05:28:22;6.13;;;3.40;;
42600;SDS011;28229;48.856;9.088;2022-10-28T05:30:48;9.90;;;3.90;;
42600;SDS011;28229;48.856;9.088;2022-10-28T05:33:14;8.37;;;4.17;;
42600;SDS011;28229;48.856;9.088;2022-10-28T05:35:40;7.87;;;3.67;;
42600;SDS011;28229;48.856;9.088;2022-10-28T05:38:06;8.10;;;3.93;;
42600;SDS011;28229;48.856;9.088;2022-10-28T05:40:32;7.00;;;3.70;;
42600;SDS011;28229;48.856;9.088;2022-10-28T05:42:58;7.07;;;3.70;;
42600;SDS011;28229;48.856;9.088;2022-10-28T05:45:25;6.03;;;3.40;;
42600;SDS011;28229;48.856;9.088;2022-10-28T05:47:51;6.27;;;3.40;;
42600;SDS011;28229;48.856;9.088;2022-10-28T05:50:17;11.13;;;3.83;;
42600;SDS011;28229;48.856;9.088;2022-10-28T05:52:46;7.73;;;3.70;;
42600;SDS011;28229;48.856;9.088;2022-10-28T05:55:16;6.43;;;3.53;;
42600;SDS011;28229;48.856;9.088;2022-10-28T05:57:46;10.53;;;3.83;;
42600;SDS011;28229;48.856;9.088;2022-10-28T06:00:14;6.60;;;3.73;;
42600;SDS011;28229;48.856;9.088;2022-10-28T06:02:41;9.43;;;4.17;;
42600;SDS011;28229;48.856;9.088;2022-10-28T06:05:08;4.50;;;3.40;;
42600;SDS011;28229;48.856;9.088;2022-10-28T06:07:35;8.03;;;4.10;;
42600;SDS011;28229;48.856;9.088;2022-10-28T06:10:01;6.33;;;4.20;;
42600;SDS011;28229;48.856;9.088;2022-10-28T06:12:29;9.70;;;4.20;;
42600;SDS011;28229;48.856;9.088;2022-10-28T06:14:55;8.37;;;3.93;;
42600;SDS011;28229;48.856;9.088;2022-10-28T06:17:20;8.63;;;3.80;;
42600;SDS011;28229;48.856;9.088;2022-10-28T06:19:46;7.70;;;3.93;;
42600;SDS011;28229;48.856;9.088;2022-10-28T06:22:12;11.10;;;4.20;;
42600;SDS011;28229;48.856;9.088;2022-10-28T06:24:38;7.37;;;3.83;;
42600;SDS011;28229;48.856;9.088;2022-10-28T06:27:04;8.77;;;4.57;;
42600;SDS011;28229;48.856;9.088;2022-10-28T06:29:30;8.30;;;4.47;;
42600;SDS011;28229;48.856;9.088;2022-10-28T06:31:56;8.97;;;4.43;;
42600;SDS011;28229;48.856;9.088;2022-10-28T06:34:23;6.03;;;3.60;;
42600;SDS011;28229;48.856;9.088;2022-10-28T06:36:49;7.33;;;3.73;;
42600;SDS011;28229;48.856;9.088;2022-10-28T06:39:15;7.87;;;4.00;;
42600;SDS011;28229;48.856;9.088;2022-10-28T06:41:41;6.47;;;3.70;;
42600;SDS011;28229;48.856;9.088;2022-10-28T06:44:07;6.53;;;3.50;;
42600;SDS011;28229;48.856;9.088;2022-10-28T06:46:33;6.73;;;3.77;;
42600;SDS011;28229;48.856;9.088;2022-10-28T06:48:58;9.27;;;3.50;;
42600;SDS011;28229;48.856;9.088;2022-10-28T06:51:27;8.90;;;3.40;;
42600;SDS011;28229;48.856;9.088;2022-10-28T06:53:54;5.63;;;3.33;;
42600;SDS011;28229;48.856;9.088;2022-10-28T06:56:20;6.30;;;3.03;;
42600;SDS011;28229;48.856;9.088;2022-10-28T06:58:50;6.50;;;3.10;;
42600;SDS011;28229;48.856;9.088;2022-10-28T07:01:16;7.70;;;3.10;;
42600;SDS011;28229;48.856;9.088;2022-10-28T07:03:42;5.67;;;2.63;;
42600;SDS011;28229;48.856;9.088;2022-10-28T07:06:08;3.67;;;2.67;;
42600;SDS011;28229;48.856;9.088;2022-10-28T07:08:34;6.20;;;3.10;;
42600;SDS011;28229;48.856;9.088;2022-10-28T07:11:00;6.03;;;2.70;;
42600;SDS011;28229;48.856;9.088;2022-10-28T07:13:27;7.30;;;2.90;;
42600;SDS011;28229;48.856;9.088;2022-10-28T07:15:54;5.33;;;2.80;;
42600;SDS011;28229;48.856;9.088;2022-10-28T07:18:24;5.90;;;3.47;;
42600;SDS011;28229;48.856;9.088;2022-10-28T07:20:51;6.77;;;3.60;;
42600;SDS011;28229;48.856;9.088;2022-10-28T07:23:17;4.77;;;3.23;;
42600;SDS011;28229;48.856;9.088;2022-10-28T07:25:50;8.90;;;3.60;;
42600;SDS011;28229;48.856;9.088;2022-10-28T07:28:21;7.33;;;3.53;;
42600;SDS011;28229;48.856;9.088;2022-10-28T07:30:48;5.23;;;3.33;;
42600;SDS011;28229;48.856;9.088;2022-10-28T07:33:14;6.03;;;3.10;;
42600;SDS011;28229;48.856;9.088;2022-10-28T07:35:40;7.73;;;3.80;;
42600;SDS011;28229;48.856;9.088;2022-10-28T07:38:07;8.03;;;4.20;;
42600;SDS011;28229;48.856;9.088;2022-10-28T07:40:33;8.43;;;5.00;;
42600;SDS011;28229;48.856;9.088;2022-10-28T07:42:59;14.60;;;5.90;;
42600;SDS011;28229;48.856;9.088;2022-10-28T07:45:24;8.73;;;4.77;;
42600;SDS011;28229;48.856;9.088;2022-10-28T07:47:50;10.97;;;5.57;;
42600;SDS011;28229;48.856;9.088;2022-10-28T07:50:16;7.37;;;4.80;;
42600;SDS011;28229;48.856;9.088;2022-10-28T07:52:42;7.83;;;4.37;;
42600;SDS011;28229;48.856;9.088;2022-10-28T07:55:09;6.70;;;4.00;;
42600;SDS011;28229;48.856;9.088;2022-10-28T07:57:35;7.83;;;3.97;;
42600;SDS011;28229;48.856;9.088;2022-10-28T08:00:02;8.00;;;3.70;;
42600;SDS011;28229;48.856;9.088;2022-10-28T08:02:36;4.90;;;2.93;;
42600;SDS011;28229;48.856;9.088;2022-10-28T08:05:02;6.60;;;2.80;;
42600;SDS011;28229;48.856;9.088;2022-10-28T08:07:28;4.90;;;2.77;;
42600;SDS011;28229;48.856;9.088;2022-10-28T08:09:54;5.87;;;2.33;;
42600;SDS011;28229;48.856;9.088;2022-10-28T08:12:20;4.63;;;2.63;;
42600;SDS011;28229;48.856;9.088;2022-10-28T08:14:46;6.60;;;2.80;;
42600;SDS011;28229;48.856;9.088;2022-10-28T08:17:11;4.47;;;2.40;;
42600;SDS011;28229;48.856;9.088;2022-10-28T08:19:37;4.97;;;2.50;;
42600;SDS011;28229;48.856;9.088;2022-10-28T08:22:03;4.90;;;2.10;;
42600;SDS011;28229;48.856;9.088;2022-10-28T08:24:29;3.67;;;2.03;;
42600;SDS011;28229;48.856;9.088;2022-10-28T08:26:55;5.60;;;2.07;;
42600;SDS011;28229;48.856;9.088;2022-10-28T08:29:20;4.37;;;2.27;;
42600;SDS011;28229;48.856;9.088;2022-10-28T08:31:46;3.77;;;2.40;;
42600;SDS011;28229;48.856;9.088;2022-10-28T08:34:12;7.67;;;2.10;;
42600;SDS011;28229;48.856;9.088;2022-10-28T08:36:38;6.60;;;2.40;;
42600;SDS011;28229;48.856;9.088;2022-10-28T08:39:04;8.60;;;2.47;;
42600;SDS011;28229;48.856;9.088;2022-10-28T08:44:07;5.30;;;2.10;;
42600;SDS011;28229;48.856;9.088;2022-10-28T08:47:15;5.50;;;2.20;;
42600;SDS011;28229;48.856;9.088;2022-10-28T08:49:45;3.70;;;2.20;;
42600;SDS011;28229;48.856;9.088;2022-10-28T08:52:50;5.80;;;2.80;;
42600;SDS011;28229;48.856;9.088;2022-10-28T08:57:50;8.27;;;3.33;;
42600;SDS011;28229;48.856;9.088;2022-10-28T09:00:23;9.83;;;3.00;;
42600;SDS011;28229;48.856;9.088;2022-10-28T09:02:58;5.73;;;3.30;;
42600;SDS011;28229;48.856;9.088;2022-10-28T09:05:26;9.07;;;3.10;;
42600;SDS011;28229;48.856;9.088;2022-10-28T09:07:52;7.07;;;2.90;;
42600;SDS011;28229;48.856;9.088;2022-10-28T09:21:17;7.37;;;3.60;;
42600;SDS011;28229;48.856;9.088;2022-10-28T09:23:55;6.43;;;3.10;;
42600;SDS011;28229;48.856;9.088;2022-10-28T09:32:11;6.23;;;2.87;;
42600;SDS011;28229;48.856;9.088;2022-10-28T09:37:20;7.60;;;3.17;;
42600;SDS011;28229;48.856;9.088;2022-10-28T09:39:52;6.57;;;2.83;;
42600;SDS011;28229;48.856;9.088;2022-10-28T09:42:22;5.77;;;3.03;;
42600;SDS011;28229;48.856;9.088;2022-10-28T09:44:54;7.00;;;3.27;;
42600;SDS011;28229;48.856;9.088;2022-10-28T09:47:31;7.73;;;2.97;;
42600;SDS011;28229;48.856;9.088;2022-10-28T09:50:03;8.47;;;3.00;;
42600;SDS011;28229;48.856;9.088;2022-10-28T09:52:33;7.43;;;2.70;;
42600;SDS011;28229;48.856;9.088;2022-10-28T09:55:11;6.97;;;2.93;;
42600;SDS011;28229;48.856;9.088;2022-10-28T09:57:44;5.67;;;2.93;;
42600;SDS011;28229;48.856;9.088;2022-10-28T10:00:12;9.90;;;5.47;;
42600;SDS011;28229;48.856;9.088;2022-10-28T10:02:40;8.67;;;4.10;;
42600;SDS011;28229;48.856;9.088;2022-10-28T10:05:12;6.47;;;3.50;;
42600;SDS011;28229;48.856;9.088;2022-10-28T10:07:42;7.13;;;3.63;;
42600;SDS011;28229;48.856;9.088;2022-10-28T10:10:15;7.27;;;4.00;;
42600;SDS011;28229;48.856;9.088;2022-10-28T10:12:47;11.23;;;3.80;;
42600;SDS011;28229;48.856;9.088;2022-10-28T10:15:18;5.97;;;3.80;;
42600;SDS011;28229;48.856;9.088;2022-10-28T10:17:51;8.50;;;4.17;;
42600;SDS011;28229;48.856;9.088;2022-10-28T10:20:21;6.10;;;3.57;;
42600;SDS011;28229;48.856;9.088;2022-10-28T10:22:47;8.27;;;3.97;;
42600;SDS011;28229;48.856;9.088;2022-10-28T10:27:50;23.60;;;8.33;;
42600;SDS011;28229;48.856;9.088;2022-10-28T10:30:22;9.93;;;4.30;;
42600;SDS011;28229;48.856;9.088;2022-10-28T10:32:51;28.40;;;9.23;;
42600;SDS011;28229;48.856;9.088;2022-10-28T10:35:19;15.90;;;6.00;;
42600;SDS011;28229;48.856;9.088;2022-10-28T10:37:49;20.90;;;7.57;;
42600;SDS011;28229;48.856;9.088;2022-10-28T10:45:52;18.90;;;6.13;;
42600;SDS011;28229;48.856;9.088;2022-10-28T10:48:29;8.53;;;4.40;;
42600;SDS011;28229;48.856;9.088;2022-10-28T10:50:57;13.87;;;5.83;;
42600;SDS011;28229;48.856;9.088;2022-10-28T10:53:29;8.80;;;3.70;;
42600;SDS011;28229;48.856;9.088;2022-10-28T10:55:57;9.57;;;3.50;;
42600;SDS011;28229;48.856;9.088;2022-10-28T10:58:36;7.50;;;3.93;;
42600;SDS011;28229;48.856;9.088;2022-10-28T11:01:05;9.20;;;4.47;;
42600;SDS011;28229;48.856;9.088;2022-10-28T11:03:37;6.97;;;3.67;;
42600;SDS011;28229;48.856;9.088;2022-10-28T11:06:17;9.00;;;4.10;;
42600;SDS011;28229;48.856;9.088;2022-10-28T11:08:46;8.43;;;3.83;;
42600;SDS011;28229;48.856;9.088;2022-10-28T11:11:19;8.40;;;4.23;;
42600;SDS011;28229;48.856;9.088;2022-10-28T11:13:46;8.77;;;4.60;;
42600;SDS011;28229;48.856;9.088;2022-10-28T11:16:26;7.77;;;3.67;;
42600;SDS011;28229;48.856;9.088;2022-10-28T11:18:52;8.27;;;4.10;;
42600;SDS011;28229;48.856;9.088;2022-10-28T11:24:21;6.27;;;3.83;;
42600;SDS011;28229;48.856;9.088;2022-10-28T11:27:12;11.13;;;4.30;;
42600;SDS011;28229;48.856;9.088;2022-10-28T11:29:41;8.43;;;3.73;;
42600;SDS011;28229;48.856;9.088;2022-10-28T11:45:50;10.70;;;4.43;;
42600;SDS011;28229;48.856;9.088;2022-10-28T11:56:46;9.60;;;4.60;;
42600;SDS011;28229;48.856;9.088;2022-10-28T12:02:31;8.80;;;4.47;;
42600;SDS011;28229;48.856;9.088;2022-10-28T12:05:45;9.10;;;3.93;;
42600;SDS011;28229;48.856;9.088;2022-10-28T12:11:20;12.40;;;4.50;;
42600;SDS011;28229;48.856;9.088;2022-10-28T12:16:54;8.27;;;4.60;;
42600;SDS011;28229;48.856;9.088;2022-10-28T12:19:28;8.70;;;4.07;;
42600;SDS011;28229;48.856;9.088;2022-10-28T12:22:01;12.47;;;4.20;;
42600;SDS011;28229;48.856;9.088;2022-10-28T12:24:35;9.10;;;4.27;;
42600;SDS011;28229;48.856;9.088;2022-10-28T12:27:06;9.47;;;3.77;;
42600;SDS011;28229;48.856;9.088;2022-10-28T12:29:40;11.90;;;4.60;;
42600;SDS011;28229;48.856;9.088;2022-10-28T12:32:10;7.87;;;4.17;;
42600;SDS011;28229;48.856;9.088;2022-10-28T12:35:02;8.30;;;3.97;;
42600;SDS011;28229;48.856;9.088;2022-10-28T12:37:31;8.57;;;3.67;;
42600;SDS011;28229;48.856;9.088;2022-10-28T12:40:15;9.27;;;4.00;;
42600;SDS011;28229;48.856;9.088;2022-10-28T12:45:24;9.83;;;4.80;;
42600;SDS011;28229;48.856;9.088;2022-10-28T12:47:54;7.80;;;3.57;;
42600;SDS011;28229;48.856;9.088;2022-10-28T12:56:29;9.37;;;3.20;;
42600;SDS011;28229;48.856;9.088;2022-10-28T13:01:39;7.97;;;3.35;;
42600;SDS011;28229;48.856;9.088;2022-10-28T13:04:10;8.07;;;3.20;;
42600;SDS011;28229;48.856;9.088;2022-10-28T13:06:51;11.60;;;3.17;;
42600;SDS011;28229;48.856;9.088;2022-10-28T13:09:39;7.55;;;3.20;;
42600;SDS011;28229;48.856;9.088;2022-10-28T13:17:30;6.30;;;3.10;;
42600;SDS011;28229;48.856;9.088;2022-10-28T13:25:45;6.63;;;3.17;;
42600;SDS011;28229;48.856;9.088;2022-10-28T13:28:32;7.80;;;3.30;;
42600;SDS011;28229;48.856;9.088;2022-10-28T13:31:01;8.65;;;3.20;;
42600;SDS011;28229;48.856;9.088;2022-10-28T13:33:29;7.55;;;3.60;;
42600;SDS011;28229;48.856;9.088;2022-10-28T13:36:16;5.85;;;3.10;;
42600;SDS011;28229;48.856;9.088;2022-10-28T13:39:04;11.00;;;3.28;;
42600;SDS011;28229;48.856;9.088;2022-10-28T13:41:33;4.93;;;2.60;;
42600;SDS011;28229;48.856;9.088;2022-10-28T13:54:26;5.95;;;3.08;;
42600;SDS011;28229;48.856;9.088;2022-10-28T13:56:59;7.18;;;3.35;;
42600;SDS011;28229;48.856;9.088;2022-10-28T13:59:29;5.60;;;2.90;;
42600;SDS011;28229;48.856;9.088;2022-10-28T14:02:16;6.53;;;3.45;;
42600;SDS011;28229;48.856;9.088;2022-10-28T14:04:54;10.07;;;3.28;;
42600;SDS011;28229;48.856;9.088;2022-10-28T14:07:23;5.32;;;2.90;;
42600;SDS011;28229;48.856;9.088;2022-10-28T14:09:55;8.70;;;3.20;;
42600;SDS011;28229;48.856;9.088;2022-10-28T14:14:55;8.30;;;3.45;;
42600;SDS011;28229;48.856;9.088;2022-10-28T14:17:26;9.40;;;3.50;;
42600;SDS011;28229;48.856;9.088;2022-10-28T14:19:59;6.72;;;3.45;;
42600;SDS011;28229;48.856;9.088;2022-10-28T14:22:27;6.47;;;3.63;;
42600;SDS011;28229;48.856;9.088;2022-10-28T14:25:01;7.32;;;3.60;;
42600;SDS011;28229;48.856;9.088;2022-10-28T14:27:29;7.57;;;3.40;;
42600;SDS011;28229;48.856;9.088;2022-10-28T14:35:27;7.72;;;3.47;;
42600;SDS011;28229;48.856;9.088;2022-10-28T14:46:02;7.03;;;3.30;;
42600;SDS011;28229;48.856;9.088;2022-10-28T14:48:39;7.25;;;2.97;;
42600;SDS011;28229;48.856;9.088;2022-10-28T14:51:18;6.43;;;3.42;;
42600;SDS011;28229;48.856;9.088;2022-10-28T14:53:46;7.00;;;3.38;;
42600;SDS011;28229;48.856;9.088;2022-10-28T14:56:24;8.70;;;3.38;;
42600;SDS011;28229;48.856;9.088;2022-10-28T14:58:52;11.10;;;3.53;;
42600;SDS011;28229;48.856;9.088;2022-10-28T15:01:22;6.22;;;3.50;;
42600;SDS011;28229;48.856;9.088;2022-10-28T15:04:32;9.65;;;3.47;;
42600;SDS011;28229;48.856;9.088;2022-10-28T15:06:40;8.25;;;3.83;;
42600;SDS011;28229;48.856;9.088;2022-10-28T15:11:58;7.43;;;3.75;;
42600;SDS011;28229;48.856;9.088;2022-10-28T15:17:11;11.10;;;5.25;;
42600;SDS011;28229;48.856;9.088;2022-10-28T15:19:43;10.60;;;4.72;;
42600;SDS011;28229;48.856;9.088;2022-10-28T15:27:30;10.55;;;5.53;;
42600;SDS011;28229;48.856;9.088;2022-10-28T15:29:58;11.88;;;5.95;;
42600;SDS011;28229;48.856;9.088;2022-10-28T15:32:25;8.20;;;5.43;;
42600;SDS011;28229;48.856;9.088;2022-10-28T15:34:55;9.90;;;5.57;;
42600;SDS011;28229;48.856;9.088;2022-10-28T15:37:22;13.33;;;6.97;;
42600;SDS011;28229;48.856;9.088;2022-10-28T15:39:51;12.30;;;8.30;;
42600;SDS011;28229;48.856;9.088;2022-10-28T15:42:38;15.73;;;8.73;;
42600;SDS011;28229;48.856;9.088;2022-10-28T15:45:15;11.47;;;6.03;;
42600;SDS011;28229;48.856;9.088;2022-10-28T15:47:43;11.43;;;5.40;;
42600;SDS011;28229;48.856;9.088;2022-10-28T15:52:42;13.73;;;5.73;;
42600;SDS011;28229;48.856;9.088;2022-10-28T15:55:26;10.33;;;4.57;;
42600;SDS011;28229;48.856;9.088;2022-10-28T15:57:55;15.67;;;5.23;;
42600;SDS011;28229;48.856;9.088;2022-10-28T16:00:24;11.77;;;4.33;;
42600;SDS011;28229;48.856;9.088;2022-10-28T16:03:11;12.50;;;4.20;;
42600;SDS011;28229;48.856;9.088;2022-10-28T16:05:54;6.67;;;4.03;;
42600;SDS011;28229;48.856;9.088;2022-10-28T16:08:30;10.07;;;4.53;;
42600;SDS011;28229;48.856;9.088;2022-10-28T16:11:04;10.60;;;4.93;;
42600;SDS011;28229;48.856;9.088;2022-10-28T16:13:39;10.27;;;6.37;;
42600;SDS011;28229;48.856;9.088;2022-10-28T16:16:12;16.30;;;10.50;;
42600;SDS011;28229;48.856;9.088;2022-10-28T16:21:32;9.63;;;4.73;;
42600;SDS011;28229;48.856;9.088;2022-10-28T16:23:59;10.13;;;5.00;;
42600;SDS011;28229;48.856;9.088;2022-10-28T16:26:27;12.13;;;5.73;;
42600;SDS011;28229;48.856;9.088;2022-10-28T16:28:55;11.80;;;6.20;;
42600;SDS011;28229;48.856;9.088;2022-10-28T16:31:21;12.27;;;8.20;;
42600;SDS011;28229;48.856;9.088;2022-10-28T16:33:52;24.70;;;13.97;;
42600;SDS011;28229;48.856;9.088;2022-10-28T16:36:19;25.03;;;15.27;;
42600;SDS011;28229;48.856;9.088;2022-10-28T16:38:45;15.80;;;7.70;;
42600;SDS011;28229;48.856;9.088;2022-10-28T16:41:13;10.33;;;8.27;;
42600;SDS011;28229;48.856;9.088;2022-10-28T16:43:41;13.07;;;6.23;;
42600;SDS011;28229;48.856;9.088;2022-10-28T16:46:08;9.87;;;4.73;;
42600;SDS011;28229;48.856;9.088;2022-10-28T16:48:36;10.63;;;4.57;;
42600;SDS011;28229;48.856;9.088;2022-10-28T16:51:03;8.60;;;4.07;;
42600;SDS011;28229;48.856;9.088;2022-10-28T16:53:34;9.73;;;5.10;;
42600;SDS011;28229;48.856;9.088;2022-10-28T16:56:00;14.77;;;7.37;;
42600;SDS011;28229;48.856;9.088;2022-10-28T16:58:27;8.87;;;4.47;;
42600;SDS011;28229;48.856;9.088;2022-10-28T17:00:55;8.90;;;4.37;;
42600;SDS011;28229;48.856;9.088;2022-10-28T17:03:21;7.23;;;3.60;;
42600;SDS011;28229;48.856;9.088;2022-10-28T17:05:47;8.47;;;4.10;;
42600;SDS011;28229;48.856;9.088;2022-10-28T17:08:13;8.40;;;4.50;;
42600;SDS011;28229;48.856;9.088;2022-10-28T17:10:39;8.30;;;4.67;;
42600;SDS011;28229;48.856;9.088;2022-10-28T17:13:10;8.77;;;5.67;;
42600;SDS011;28229;48.856;9.088;2022-10-28T17:15:37;10.60;;;6.17;;
42600;SDS011;28229;48.856;9.088;2022-10-28T17:18:04;11.53;;;6.27;;
42600;SDS011;28229;48.856;9.088;2022-10-28T17:20:30;10.80;;;5.43;;
42600;SDS011;28229;48.856;9.088;2022-10-28T17:22:56;9.90;;;5.80;;
42600;SDS011;28229;48.856;9.088;2022-10-28T17:25:25;7.83;;;5.40;;
42600;SDS011;28229;48.856;9.088;2022-10-28T17:27:53;14.03;;;6.53;;
42600;SDS011;28229;48.856;9.088;2022-10-28T17:30:19;11.57;;;5.63;;
42600;SDS011;28229;48.856;9.088;2022-10-28T17:32:50;7.70;;;5.30;;
42600;SDS011;28229;48.856;9.088;2022-10-28T17:35:17;9.57;;;5.13;;
42600;SDS011;28229;48.856;9.088;2022-10-28T17:37:47;8.27;;;4.63;;
42600;SDS011;28229;48.856;9.088;2022-10-28T17:40:13;7.47;;;4.57;;
42600;SDS011;28229;48.856;9.088;2022-10-28T17:42:39;7.33;;;4.00;;
42600;SDS011;28229;48.856;9.088;2022-10-28T17:45:05;13.23;;;5.00;;
42600;SDS011;28229;48.856;9.088;2022-10-28T17:47:34;7.70;;;4.80;;
42600;SDS011;28229;48.856;9.088;2022-10-28T17:50:00;8.70;;;4.30;;